createdAt,value
2019-05-02T00:00:56.626Z,82.50
2019-05-02T00:03:26.865Z,82.30
2019-05-02T00:05:55.875Z,82.90
2019-05-02T00:08:29.198Z,81.90
2019-05-02T00:10:56.504Z,82.90
2019-05-02T00:13:25.239Z,82.90
2019-05-02T00:15:54.272Z,83.00
2019-05-02T00:18:23.652Z,83.20
2019-05-02T00:20:52.466Z,83.70
2019-05-02T00:23:23.042Z,83.80
2019-05-02T00:25:52.585Z,83.80
2019-05-02T00:28:22.501Z,83.50
2019-05-02T00:33:57.009Z,83.60
2019-05-02T00:36:25.844Z,82.90
2019-05-02T00:38:54.669Z,83.40
2019-05-02T00:41:23.592Z,83.10
2019-05-02T00:43:52.604Z,83.30
2019-05-02T00:46:21.468Z,83.80
2019-05-02T00:48:59.775Z,84.10
2019-05-02T00:51:28.149Z,83.60
2019-05-02T00:53:57.116Z,83.00
2019-05-02T00:56:25.964Z,81.80
2019-05-02T00:58:54.795Z,83.20
2019-05-02T01:01:46.130Z,82.80
2019-05-02T01:04:27.165Z,82.50
2019-05-02T01:06:53.693Z,82.70
2019-05-02T01:09:22.691Z,82.50
2019-05-02T01:11:51.532Z,82.20
2019-05-02T01:14:20.366Z,82.70
2019-05-02T01:16:49.464Z,83.40
2019-05-02T01:19:19.767Z,83.10
2019-05-02T01:21:48.638Z,82.80
2019-05-02T01:24:17.577Z,83.40
2019-05-02T01:26:55.345Z,82.40
2019-05-02T01:29:31.470Z,83.00
2019-05-02T01:32:10.348Z,84.20
2019-05-02T01:34:49.113Z,83.90
2019-05-02T01:37:23.626Z,84.00
2019-05-02T01:39:52.384Z,84.00
2019-05-02T01:42:21.321Z,82.20
2019-05-02T01:44:50.387Z,82.20
2019-05-02T01:47:19.189Z,84.10
2019-05-02T01:49:51.969Z,83.20
2019-05-02T01:52:18.887Z,81.70
2019-05-02T01:54:49.125Z,83.50
2019-05-02T01:57:17.967Z,84.00
2019-05-02T01:59:46.824Z,81.20
2019-05-02T02:02:15.657Z,84.20
2019-05-02T02:04:44.548Z,82.30
2019-05-02T02:07:14.990Z,83.60
2019-05-02T02:09:45.744Z,84.20
2019-05-02T02:12:14.448Z,83.90
2019-05-02T02:14:43.279Z,83.90
2019-05-02T02:17:15.603Z,83.20
2019-05-02T02:19:47.813Z,83.40
2019-05-02T02:22:26.495Z,84.00
2019-05-02T02:25:36.159Z,83.90
2019-05-02T02:28:02.933Z,84.30
2019-05-02T02:30:31.826Z,83.60
2019-05-02T02:33:07.587Z,83.50
2019-05-02T02:35:31.273Z,83.50
2019-05-02T02:38:00.086Z,83.20
2019-05-02T02:40:34.016Z,83.30
2019-05-02T02:43:13.036Z,83.80
2019-05-02T02:45:51.896Z,83.20
2019-05-02T02:48:16.737Z,82.60
2019-05-02T02:50:45.699Z,82.10
2019-05-02T02:53:18.286Z,83.00
2019-05-02T02:55:47.316Z,82.70
2019-05-02T02:58:16.056Z,82.70
2019-05-02T03:00:47.644Z,82.00
2019-05-02T03:03:20.650Z,82.30
2019-05-02T03:05:45.891Z,82.60
2019-05-02T03:08:14.750Z,81.10
2019-05-02T03:10:45.033Z,82.10
2019-05-02T03:13:32.022Z,82.20
2019-05-02T03:16:07.179Z,82.60
2019-05-02T03:18:39.922Z,82.10
2019-05-02T03:21:02.946Z,81.50
2019-05-02T03:23:31.886Z,81.10
2019-05-02T03:26:00.705Z,81.50
2019-05-02T03:28:29.832Z,81.70
2019-05-02T03:30:58.718Z,81.70
2019-05-02T03:33:27.742Z,81.70
2019-05-02T03:35:56.626Z,81.70
2019-05-02T03:38:32.566Z,81.70
2019-05-02T03:40:56.346Z,81.50
2019-05-02T03:43:27.553Z,82.00
2019-05-02T03:45:57.610Z,81.70
2019-05-02T03:48:27.876Z,80.60
2019-05-02T03:50:56.982Z,80.50
2019-05-02T03:53:27.732Z,81.10
2019-05-02T03:55:56.579Z,79.80
2019-05-02T03:58:25.311Z,81.10
2019-05-02T04:01:00.543Z,80.70
2019-05-02T04:03:25.482Z,80.80
2019-05-02T04:05:54.621Z,79.80
2019-05-02T04:08:24.240Z,79.70
2019-05-02T04:11:24.040Z,79.80
2019-05-02T04:13:54.635Z,79.70
2019-05-02T04:16:28.999Z,79.40
2019-05-02T04:18:58.844Z,80.10
2019-05-02T04:21:27.755Z,79.70
2019-05-02T04:24:07.623Z,78.90
2019-05-02T04:26:28.841Z,79.10
2019-05-02T04:28:58.359Z,78.20
2019-05-02T04:31:31.549Z,78.20
2019-05-02T04:33:57.740Z,77.80
2019-05-02T04:36:26.662Z,77.50
2019-05-02T04:38:55.479Z,77.50
2019-05-02T04:41:34.133Z,78.10
2019-05-02T04:43:57.849Z,77.40
2019-05-02T04:46:30.958Z,76.80
2019-05-02T04:48:58.942Z,77.20
2019-05-02T04:51:31.777Z,76.90
2019-05-02T04:53:58.931Z,76.70
2019-05-02T04:56:28.519Z,76.60
2019-05-02T04:59:01.415Z,76.70
2019-05-02T05:01:33.078Z,77.00
2019-05-02T05:04:03.101Z,76.70
2019-05-02T05:06:29.062Z,76.70
2019-05-02T05:08:58.475Z,77.20
2019-05-02T05:11:27.582Z,77.50
2019-05-02T05:13:58.995Z,77.40
2019-05-02T05:16:28.640Z,77.70
2019-05-02T05:18:57.836Z,77.40
2019-05-02T05:21:28.609Z,77.90
2019-05-02T05:24:18.154Z,78.00
2019-05-02T05:26:50.321Z,78.10
2019-05-02T05:29:23.117Z,77.70
2019-05-02T05:31:49.613Z,77.90
2019-05-02T05:34:22.820Z,77.90
2019-05-02T05:36:48.889Z,78.60
2019-05-02T05:39:17.757Z,79.00
2019-05-02T05:41:48.352Z,78.90
2019-05-02T05:44:18.076Z,79.20
2019-05-02T05:46:49.424Z,78.90
2019-05-02T05:49:21.403Z,79.10
2019-05-02T05:51:49.485Z,79.40
2019-05-02T05:54:18.816Z,79.40
2019-05-02T05:56:48.101Z,79.40
2019-05-02T05:59:17.594Z,80.10
2019-05-02T06:01:48.366Z,79.80
2019-05-02T06:04:19.404Z,80.10
2019-05-02T06:06:48.071Z,80.40
2019-05-02T06:09:16.968Z,80.50
2019-05-02T06:11:45.908Z,80.80
2019-05-02T06:14:14.810Z,80.90
2019-05-02T06:16:46.656Z,81.20
2019-05-02T06:19:17.849Z,81.30
2019-05-02T06:21:45.229Z,81.30
2019-05-02T06:24:15.705Z,81.40
2019-05-02T06:26:49.583Z,81.50
2019-05-02T06:29:18.500Z,81.10
2019-05-02T06:31:45.810Z,81.40
2019-05-02T06:34:14.596Z,81.50
2019-05-02T06:36:43.449Z,81.30
2019-05-02T06:39:12.381Z,81.50
2019-05-02T06:41:41.306Z,81.40
2019-05-02T06:44:10.426Z,80.90
2019-05-02T06:46:39.340Z,81.30
2019-05-02T06:49:08.237Z,80.80
2019-05-02T06:51:37.336Z,80.80
2019-05-02T06:54:06.267Z,80.90
2019-05-02T06:56:35.166Z,81.00
2019-05-02T06:59:04.285Z,81.70
2019-05-02T07:01:33.715Z,81.40
2019-05-02T07:04:04.305Z,81.20
2019-05-02T07:06:42.451Z,81.20
2019-05-02T07:09:06.557Z,81.60
2019-05-02T07:11:38.943Z,81.30
2019-05-02T07:14:12.866Z,81.40
2019-05-02T07:16:56.484Z,81.20
2019-05-02T07:19:31.796Z,81.10
2019-05-02T07:22:04.269Z,81.10
2019-05-02T07:24:32.702Z,81.10
2019-05-02T07:27:02.428Z,81.30
2019-05-02T07:29:32.136Z,81.40
2019-05-02T07:32:01.049Z,81.20
2019-05-02T07:34:30.086Z,81.30
2019-05-02T07:36:59.621Z,81.50
2019-05-02T07:39:28.661Z,81.30
2019-05-02T07:42:00.447Z,81.40
2019-05-02T07:44:32.773Z,81.30
2019-05-02T07:47:02.756Z,81.30
2019-05-02T07:49:32.149Z,81.70
2019-05-02T07:52:00.080Z,81.50
2019-05-02T07:54:28.983Z,81.60
2019-05-02T07:56:57.888Z,81.50
2019-05-02T07:59:26.802Z,81.30
2019-05-02T08:01:55.578Z,82.00
2019-05-02T08:04:24.568Z,81.30
2019-05-02T08:06:53.461Z,81.10
2019-05-02T08:09:22.583Z,81.10
2019-05-02T08:11:51.501Z,80.80
2019-05-02T08:14:21.612Z,80.90
2019-05-02T08:16:50.513Z,80.80
2019-05-02T08:19:19.291Z,80.50
2019-05-02T08:21:48.155Z,80.50
2019-05-02T08:24:17.003Z,80.80
2019-05-02T08:27:06.165Z,80.20
2019-05-02T08:29:35.880Z,80.20
2019-05-02T08:32:04.768Z,80.10
2019-05-02T08:34:33.706Z,80.20
2019-05-02T08:37:04.894Z,79.40
2019-05-02T08:39:35.073Z,79.50
2019-05-02T08:42:05.202Z,79.50
2019-05-02T08:44:34.151Z,79.30
2019-05-02T08:47:04.259Z,79.20
2019-05-02T08:49:33.129Z,79.80
2019-05-02T08:52:01.960Z,79.10
2019-05-02T08:54:32.807Z,78.70
2019-05-02T08:57:01.288Z,78.80
2019-05-02T08:59:30.188Z,78.30
2019-05-02T09:01:58.964Z,78.00
2019-05-02T09:04:29.273Z,78.10
2019-05-02T09:07:00.514Z,77.80
2019-05-02T09:09:29.590Z,77.50
2019-05-02T09:12:09.698Z,77.60
2019-05-02T09:14:29.337Z,77.80
2019-05-02T09:17:00.388Z,77.80
2019-05-02T09:19:31.694Z,77.70
2019-05-02T09:21:59.383Z,77.80
2019-05-02T09:24:28.304Z,77.20
2019-05-02T09:26:57.140Z,76.90
2019-05-02T09:29:25.852Z,77.00
2019-05-02T09:31:54.664Z,76.90
2019-05-02T09:34:26.629Z,76.80
2019-05-02T09:36:53.994Z,76.70
2019-05-02T09:39:22.903Z,77.00
2019-05-02T09:41:52.629Z,76.60
2019-05-02T09:44:22.385Z,76.50
2019-05-02T09:46:55.266Z,76.20
2019-05-02T09:49:22.476Z,77.20
2019-05-02T09:51:59.200Z,76.70
2019-05-02T09:54:23.072Z,76.40
2019-05-02T09:56:52.549Z,76.30
2019-05-02T09:59:33.054Z,76.20
2019-05-02T10:02:06.821Z,76.10
2019-05-02T10:04:36.378Z,75.90
2019-05-02T10:07:05.586Z,75.40
2019-05-02T10:09:35.476Z,75.20
2019-05-02T10:12:05.152Z,75.20
2019-05-02T10:14:34.649Z,74.60
2019-05-02T10:17:07.134Z,75.00
2019-05-02T10:19:35.358Z,75.10
2019-05-02T10:22:04.804Z,74.70
2019-05-02T10:24:34.110Z,74.50
2019-05-02T10:27:08.246Z,73.70
2019-05-02T10:29:33.857Z,73.80
2019-05-02T10:32:13.050Z,73.60
2019-05-02T10:34:42.894Z,73.80
2019-05-02T10:37:13.563Z,73.90
2019-05-02T10:39:43.226Z,73.90
2019-05-02T10:42:12.567Z,74.50
2019-05-02T10:44:42.703Z,74.40
2019-05-02T10:47:14.409Z,74.40
2019-05-02T10:49:52.583Z,74.50
2019-05-02T10:52:29.600Z,74.80
2019-05-02T10:54:54.715Z,75.10
2019-05-02T10:57:24.310Z,74.90
2019-05-02T10:59:56.211Z,74.70
2019-05-02T11:02:48.373Z,74.70
2019-05-02T11:05:22.585Z,74.80
2019-05-02T11:07:52.288Z,75.00
2019-05-02T11:10:21.815Z,75.10
2019-05-02T11:12:58.149Z,75.30
2019-05-02T11:15:44.904Z,75.20
2019-05-02T11:18:14.372Z,75.10
2019-05-02T11:20:43.434Z,75.40
2019-05-02T11:23:12.815Z,75.60
2019-05-02T11:25:42.461Z,75.50
2019-05-02T11:28:12.452Z,75.00
2019-05-02T11:30:43.403Z,74.80
2019-05-02T11:33:13.454Z,74.40
2019-05-02T11:35:49.076Z,74.70
2019-05-02T11:38:25.112Z,74.50
2019-05-02T11:40:43.728Z,74.10
2019-05-02T11:43:12.574Z,74.30
2019-05-02T11:45:42.472Z,74.00
2019-05-02T11:48:13.880Z,73.90
2019-05-02T11:50:42.295Z,73.80
2019-05-02T11:53:23.325Z,73.80
2019-05-02T11:55:43.727Z,73.30
2019-05-02T11:58:12.634Z,73.60
2019-05-02T12:00:45.359Z,73.20
2019-05-02T12:03:28.240Z,73.50
2019-05-02T12:06:06.619Z,72.90
2019-05-02T12:08:33.118Z,72.70
2019-05-02T12:11:03.868Z,72.20
2019-05-02T12:13:32.853Z,72.30
2019-05-02T12:16:02.739Z,72.70
2019-05-02T12:18:32.597Z,72.00
2019-05-02T12:21:02.639Z,72.70
2019-05-02T12:23:32.066Z,71.50
2019-05-02T12:26:02.769Z,71.30
2019-05-02T12:28:32.360Z,70.40
2019-05-02T12:31:02.744Z,69.80
2019-05-02T12:33:35.883Z,70.30
2019-05-02T12:36:07.874Z,70.10
2019-05-02T12:38:36.747Z,69.80
2019-05-02T12:41:19.280Z,69.50
2019-05-02T12:43:36.321Z,69.80
2019-05-02T12:46:05.415Z,69.40
2019-05-02T12:48:34.817Z,69.70
2019-05-02T12:51:03.991Z,67.90
2019-05-02T12:53:32.888Z,67.80
2019-05-02T12:56:02.188Z,68.00
2019-05-02T12:58:32.509Z,68.70
2019-05-02T13:01:03.673Z,67.90
2019-05-02T13:03:57.832Z,68.40
2019-05-02T13:06:27.441Z,68.50
2019-05-02T13:08:56.753Z,68.70
2019-05-02T13:11:43.920Z,67.70
2019-05-02T13:14:16.764Z,67.90
2019-05-02T13:16:42.909Z,67.00
2019-05-02T13:19:12.001Z,67.40
2019-05-02T13:21:59.588Z,67.50
2019-05-02T13:24:34.980Z,67.10
2019-05-02T13:27:04.637Z,67.20
2019-05-02T13:29:33.611Z,67.20
2019-05-02T13:32:21.746Z,66.60
2019-05-02T13:34:57.215Z,66.70
2019-05-02T13:37:26.598Z,66.50
2019-05-02T13:40:11.805Z,66.50
2019-05-02T13:42:41.797Z,66.80
2019-05-02T13:45:26.202Z,66.90
2019-05-02T13:47:55.271Z,66.90
2019-05-02T13:50:24.137Z,66.90
2019-05-02T13:52:57.831Z,67.90
2019-05-02T13:55:29.097Z,67.40
2019-05-02T13:57:58.833Z,67.50
2019-05-02T14:00:34.760Z,66.80
2019-05-02T14:03:03.855Z,66.50
2019-05-02T14:05:33.652Z,66.50
2019-05-02T14:08:18.885Z,66.80
2019-05-02T14:10:49.668Z,66.10
2019-05-02T14:13:18.436Z,66.40
2019-05-02T14:15:47.410Z,66.30
2019-05-02T14:18:16.166Z,66.20
2019-05-02T14:20:44.974Z,65.80
2019-05-02T14:23:13.869Z,66.40
2019-05-02T14:25:42.755Z,67.60
2019-05-02T14:28:12.970Z,66.70
2019-05-02T14:30:45.923Z,65.70
2019-05-02T14:33:17.745Z,65.30
2019-05-02T14:35:46.747Z,65.20
2019-05-02T14:38:16.446Z,65.60
2019-05-02T14:41:04.805Z,65.50
2019-05-02T14:43:52.529Z,65.80
2019-05-02T14:46:22.911Z,64.60
2019-05-02T14:48:52.497Z,64.50
2019-05-02T14:51:27.130Z,65.10
2019-05-02T14:53:57.330Z,65.40
2019-05-02T14:56:32.679Z,65.00
2019-05-02T14:59:02.640Z,63.20
2019-05-02T15:01:32.125Z,63.50
2019-05-02T15:04:06.440Z,63.60
2019-05-02T15:06:33.776Z,62.40
2019-05-02T15:09:02.587Z,63.40
2019-05-02T15:11:34.818Z,63.30
2019-05-02T15:14:03.096Z,63.40
2019-05-02T15:16:40.429Z,62.50
2019-05-02T15:19:03.169Z,62.60
2019-05-02T15:21:46.906Z,62.60
2019-05-02T15:24:14.535Z,62.80
2019-05-02T15:26:43.309Z,62.90
2019-05-02T15:29:19.863Z,62.70
2019-05-02T15:31:48.838Z,62.70
2019-05-02T15:34:24.516Z,63.30
2019-05-02T15:36:53.374Z,63.50
2019-05-02T15:41:52.902Z,63.50
2019-05-02T15:44:23.380Z,63.60
2019-05-02T15:46:52.482Z,64.00
2019-05-02T15:49:22.239Z,64.20
2019-05-02T15:51:52.376Z,63.70
2019-05-02T15:54:22.713Z,63.70
2019-05-02T15:57:00.644Z,63.50
2019-05-02T15:59:37.601Z,63.70
2019-05-02T16:02:09.335Z,63.80
2019-05-02T16:04:41.563Z,64.20
2019-05-02T16:07:11.954Z,64.30
2019-05-02T16:09:41.670Z,64.50
2019-05-02T16:12:12.208Z,64.80
2019-05-02T16:14:42.462Z,64.90
2019-05-02T16:17:12.449Z,65.00
2019-05-02T16:19:46.487Z,65.00
2019-05-02T16:22:19.457Z,65.00
2019-05-02T16:24:50.736Z,65.40
2019-05-02T16:27:21.927Z,65.50
2019-05-02T16:29:49.674Z,65.40
2019-05-02T16:32:37.873Z,65.60
2019-05-02T16:35:15.298Z,65.80
2019-05-02T16:37:38.670Z,65.90
2019-05-02T16:40:11.922Z,66.80
2019-05-02T16:42:41.961Z,66.10
2019-05-02T16:45:11.760Z,66.30
2019-05-02T16:47:42.302Z,66.70
2019-05-02T16:50:12.311Z,68.10
2019-05-02T16:52:45.530Z,72.50
2019-05-02T16:55:20.937Z,74.30
2019-05-02T16:57:44.470Z,75.20
2019-05-02T17:00:16.278Z,75.00
2019-05-02T17:02:46.495Z,76.70
2019-05-02T17:05:15.791Z,79.50
2019-05-02T17:08:10.700Z,78.20
2019-05-02T17:10:47.358Z,77.40
2019-05-02T17:13:15.508Z,78.70
2019-05-02T17:15:44.320Z,79.50
2019-05-02T17:18:17.775Z,79.40
2019-05-02T17:20:46.809Z,79.20
2019-05-02T17:23:17.089Z,79.40
2019-05-02T17:25:45.954Z,78.40
2019-05-02T17:28:14.894Z,78.90
2019-05-02T17:30:43.914Z,81.60
2019-05-02T17:33:16.268Z,82.00
2019-05-02T17:35:49.356Z,83.00
2019-05-02T17:38:14.379Z,84.00
2019-05-02T17:40:43.215Z,84.00
2019-05-02T17:43:12.184Z,84.20
2019-05-02T17:45:41.101Z,84.80
2019-05-02T17:48:16.415Z,85.40
2019-05-02T17:51:01.954Z,85.40
2019-05-02T17:53:38.545Z,85.50
2019-05-02T17:56:01.922Z,85.90
2019-05-02T17:58:31.813Z,85.30
2019-05-02T18:01:02.704Z,85.00
2019-05-02T18:03:35.239Z,84.50
2019-05-02T18:06:02.658Z,84.60
2019-05-02T18:08:32.288Z,85.00
2019-05-02T18:11:02.794Z,85.30
2019-05-02T18:13:33.919Z,85.40
2019-05-02T18:16:02.851Z,85.70
2019-05-02T18:18:32.048Z,85.60
2019-05-02T18:21:02.038Z,85.90
2019-05-02T18:23:32.281Z,86.40
2019-05-02T18:26:02.774Z,86.40
2019-05-02T18:28:31.881Z,86.60
2019-05-02T18:31:02.801Z,86.80
2019-05-02T18:33:35.830Z,86.90
2019-05-02T18:36:02.343Z,87.20
2019-05-02T18:38:32.426Z,87.00
2019-05-02T18:41:05.940Z,87.40
2019-05-02T18:43:36.021Z,86.90
2019-05-02T18:46:07.477Z,87.70
2019-05-02T18:48:36.496Z,87.10
2019-05-02T18:51:04.168Z,86.70
2019-05-02T18:53:33.015Z,85.50
2019-05-02T18:56:03.583Z,85.60
2019-05-02T18:58:36.343Z,85.30
2019-05-02T19:01:08.332Z,85.10
2019-05-02T19:03:34.474Z,85.90
2019-05-02T19:06:03.583Z,86.30
2019-05-02T19:08:45.275Z,86.30
2019-05-02T19:11:11.952Z,86.50
2019-05-02T19:13:37.562Z,87.00
2019-05-02T19:16:08.256Z,87.50
2019-05-02T19:18:37.603Z,88.00
2019-05-02T19:21:06.829Z,87.80
2019-05-02T19:23:36.950Z,88.10
2019-05-02T19:26:10.182Z,88.30
2019-05-02T19:28:53.232Z,88.50
2019-05-02T19:31:24.171Z,89.60
2019-05-02T19:33:53.068Z,89.30
2019-05-02T19:36:27.488Z,89.70
2019-05-02T19:38:52.570Z,90.00
2019-05-02T19:41:22.283Z,90.10
2019-05-02T19:43:53.263Z,90.20
2019-05-02T19:46:24.573Z,90.10
2019-05-02T19:48:52.657Z,90.30
2019-05-02T19:51:22.560Z,90.40
2019-05-02T19:53:59.262Z,90.30
2019-05-02T19:56:22.309Z,90.30
2019-05-02T19:58:52.126Z,90.50
2019-05-02T20:01:23.030Z,90.60
2019-05-02T20:03:52.089Z,90.80
2019-05-02T20:06:22.024Z,90.50
2019-05-02T20:08:53.956Z,90.70
2019-05-02T20:11:21.981Z,90.80
2019-05-02T20:13:51.237Z,90.70
2019-05-02T20:16:44.182Z,90.60
2019-05-02T20:19:08.453Z,90.50
2019-05-02T20:21:43.916Z,90.50
2019-05-02T20:24:15.332Z,90.30
2019-05-02T20:26:46.636Z,90.40
2019-05-02T20:29:14.132Z,90.60
2019-05-02T20:31:42.987Z,90.30
2019-05-02T20:34:12.023Z,90.20
2019-05-02T20:36:42.561Z,90.20
2019-05-02T20:39:11.990Z,90.70
2019-05-02T20:41:41.934Z,90.40
2019-05-02T20:44:12.213Z,90.40
2019-05-02T20:46:42.122Z,90.40
2019-05-02T20:49:12.886Z,90.40
2019-05-02T20:51:42.352Z,90.20
2019-05-02T20:54:12.533Z,90.10
2019-05-02T20:56:42.675Z,90.00
2019-05-02T20:59:12.746Z,90.10
2019-05-02T21:01:42.896Z,90.00
2019-05-02T21:04:12.273Z,90.00
2019-05-02T21:06:48.143Z,90.00
2019-05-02T21:09:32.449Z,90.10
2019-05-02T21:12:04.052Z,90.20
2019-05-02T21:14:33.120Z,90.00
2019-05-02T21:17:02.185Z,90.00
2019-05-02T21:19:50.296Z,90.00
2019-05-02T21:22:23.570Z,89.80
2019-05-02T21:24:52.961Z,90.00
2019-05-02T21:27:21.944Z,89.20
2019-05-02T21:29:52.226Z,90.20
2019-05-02T21:32:22.887Z,89.60
2019-05-02T21:34:52.202Z,88.80
2019-05-02T21:37:22.624Z,88.70
2019-05-02T21:39:52.154Z,88.80
2019-05-02T21:42:22.579Z,88.80
2019-05-02T21:44:51.940Z,88.40
2019-05-02T21:47:22.561Z,88.10
2019-05-02T21:50:19.512Z,87.50
2019-05-02T21:53:19.334Z,87.10
2019-05-02T21:56:02.812Z,87.60
2019-05-02T21:58:32.376Z,87.10
2019-05-02T22:01:12.928Z,86.40
2019-05-02T22:03:42.007Z,86.40
2019-05-02T22:06:12.206Z,87.30
2019-05-02T22:08:41.772Z,87.30
2019-05-02T22:11:12.203Z,86.90
2019-05-02T22:13:42.311Z,88.10
2019-05-02T22:16:12.909Z,86.60
2019-05-02T22:18:42.740Z,87.00
2019-05-02T22:21:12.291Z,86.90
2019-05-02T22:23:42.505Z,87.50
2019-05-02T22:26:12.815Z,87.50
2019-05-02T22:28:41.741Z,88.10
2019-05-02T22:31:12.304Z,88.20
2019-05-02T22:33:42.179Z,88.20
2019-05-02T22:36:12.360Z,87.60
2019-05-02T22:38:56.526Z,86.90
2019-05-02T22:41:25.376Z,86.90
2019-05-02T22:43:54.152Z,86.70
2019-05-02T22:46:43.374Z,86.60
2019-05-02T22:49:14.516Z,85.50
2019-05-02T22:51:43.996Z,84.00
2019-05-02T22:54:24.288Z,83.60
2019-05-02T22:56:43.623Z,82.10
2019-05-02T22:59:12.457Z,81.50
2019-05-02T23:01:42.154Z,81.20
2019-05-02T23:04:12.821Z,81.10
2019-05-02T23:06:43.887Z,81.10
2019-05-02T23:09:12.867Z,80.80
2019-05-02T23:11:42.572Z,81.10
2019-05-02T23:14:11.830Z,81.30
2019-05-02T23:16:42.755Z,81.00
2019-05-02T23:19:12.277Z,81.50
2019-05-02T23:21:42.355Z,81.20
2019-05-02T23:24:17.372Z,81.50
2019-05-02T23:26:55.289Z,81.50
2019-05-02T23:29:24.156Z,82.50
2019-05-02T23:31:53.637Z,82.00
2019-05-02T23:34:23.582Z,81.50
2019-05-02T23:36:52.588Z,79.80
2019-05-02T23:39:21.386Z,80.10
2019-05-02T23:41:50.186Z,79.80
2019-05-02T23:44:18.961Z,79.70
2019-05-02T23:46:47.735Z,79.60
2019-05-02T23:49:16.646Z,79.30
2019-05-02T23:51:45.535Z,78.80
2019-05-02T23:54:14.432Z,79.40
2019-05-02T23:56:43.371Z,79.10
2019-05-02T23:59:12.415Z,79.30
